sensor_id;sensor_type;location;lat;lon;timestamp;P1;durP1;ratioP1;P2;durP2;ratioP2
69434;SDS011;56625;54.322;18.582;2023-05-24T00:00:40;13.40;;;6.00;;
69434;SDS011;56625;54.322;18.582;2023-05-24T00:03:24;11.00;;;5.70;;
69434;SDS011;56625;54.322;18.582;2023-05-24T00:05:52;10.60;;;5.40;;
69434;SDS011;56625;54.322;18.582;2023-05-24T00:08:20;11.50;;;5.60;;
69434;SDS011;56625;54.322;18.582;2023-05-24T00:10:48;12.70;;;5.70;;
69434;SDS011;56625;54.322;18.582;2023-05-24T00:13:16;10.60;;;5.70;;
69434;SDS011;56625;54.322;18.582;2023-05-24T00:15:45;10.20;;;6.10;;
69434;SDS011;56625;54.322;18.582;2023-05-24T00:18:13;10.40;;;5.40;;
69434;SDS011;56625;54.322;18.582;2023-05-24T00:20:41;11.70;;;5.70;;
69434;SDS011;56625;54.322;18.582;2023-05-24T00:23:09;11.00;;;5.20;;
69434;SDS011;56625;54.322;18.582;2023-05-24T00:25:37;10.20;;;5.50;;
69434;SDS011;56625;54.322;18.582;2023-05-24T00:28:05;11.50;;;5.30;;
69434;SDS011;56625;54.322;18.582;2023-05-24T00:30:33;11.80;;;5.20;;
69434;SDS011;56625;54.322;18.582;2023-05-24T00:33:01;10.40;;;5.20;;
69434;SDS011;56625;54.322;18.582;2023-05-24T00:35:29;10.00;;;4.60;;
69434;SDS011;56625;54.322;18.582;2023-05-24T00:37:57;10.80;;;5.10;;
69434;SDS011;56625;54.322;18.582;2023-05-24T00:40:25;11.40;;;5.20;;
69434;SDS011;56625;54.322;18.582;2023-05-24T00:42:52;10.40;;;5.30;;
69434;SDS011;56625;54.322;18.582;2023-05-24T00:45:20;11.10;;;5.30;;
69434;SDS011;56625;54.322;18.582;2023-05-24T00:47:48;9.50;;;5.10;;
69434;SDS011;56625;54.322;18.582;2023-05-24T00:50:17;9.80;;;5.50;;
69434;SDS011;56625;54.322;18.582;2023-05-24T00:52:46;9.70;;;6.00;;
69434;SDS011;56625;54.322;18.582;2023-05-24T00:55:16;11.00;;;5.90;;
69434;SDS011;56625;54.322;18.582;2023-05-24T00:57:44;10.90;;;5.70;;
69434;SDS011;56625;54.322;18.582;2023-05-24T01:00:13;9.80;;;5.50;;
69434;SDS011;56625;54.322;18.582;2023-05-24T01:02:42;10.80;;;5.90;;
69434;SDS011;56625;54.322;18.582;2023-05-24T01:05:10;12.00;;;6.20;;
69434;SDS011;56625;54.322;18.582;2023-05-24T01:11:00;12.10;;;5.80;;
69434;SDS011;56625;54.322;18.582;2023-05-24T01:14:10;11.20;;;5.70;;
69434;SDS011;56625;54.322;18.582;2023-05-24T01:17:08;9.20;;;5.60;;
69434;SDS011;56625;54.322;18.582;2023-05-24T01:19:51;11.60;;;6.20;;
69434;SDS011;56625;54.322;18.582;2023-05-24T01:26:02;11.20;;;6.00;;
69434;SDS011;56625;54.322;18.582;2023-05-24T01:28:39;12.20;;;6.40;;
69434;SDS011;56625;54.322;18.582;2023-05-24T01:31:11;14.50;;;6.20;;
69434;SDS011;56625;54.322;18.582;2023-05-24T01:33:42;12.10;;;6.30;;
69434;SDS011;56625;54.322;18.582;2023-05-24T01:36:10;12.20;;;6.10;;
69434;SDS011;56625;54.322;18.582;2023-05-24T01:38:38;13.50;;;6.60;;
69434;SDS011;56625;54.322;18.582;2023-05-24T01:44:08;12.30;;;6.40;;
69434;SDS011;56625;54.322;18.582;2023-05-24T01:49:49;12.00;;;6.50;;
69434;SDS011;56625;54.322;18.582;2023-05-24T01:52:22;12.40;;;7.20;;
69434;SDS011;56625;54.322;18.582;2023-05-24T01:54:56;12.20;;;7.10;;
69434;SDS011;56625;54.322;18.582;2023-05-24T01:57:25;11.30;;;7.20;;
69434;SDS011;56625;54.322;18.582;2023-05-24T01:59:55;10.60;;;6.80;;
69434;SDS011;56625;54.322;18.582;2023-05-24T02:02:24;12.20;;;7.30;;
69434;SDS011;56625;54.322;18.582;2023-05-24T02:04:53;11.00;;;6.60;;
69434;SDS011;56625;54.322;18.582;2023-05-24T02:07:20;14.20;;;7.20;;
69434;SDS011;56625;54.322;18.582;2023-05-24T02:09:48;14.50;;;7.40;;
69434;SDS011;56625;54.322;18.582;2023-05-24T02:12:16;12.60;;;7.00;;
69434;SDS011;56625;54.322;18.582;2023-05-24T02:14:44;13.00;;;7.40;;
69434;SDS011;56625;54.322;18.582;2023-05-24T02:17:12;15.00;;;7.80;;
69434;SDS011;56625;54.322;18.582;2023-05-24T02:19:40;11.40;;;7.20;;
69434;SDS011;56625;54.322;18.582;2023-05-24T02:22:08;16.10;;;7.90;;
69434;SDS011;56625;54.322;18.582;2023-05-24T02:24:36;13.50;;;6.80;;
69434;SDS011;56625;54.322;18.582;2023-05-24T02:27:06;12.80;;;7.20;;
69434;SDS011;56625;54.322;18.582;2023-05-24T02:29:35;12.30;;;6.70;;
69434;SDS011;56625;54.322;18.582;2023-05-24T02:32:04;12.40;;;7.30;;
69434;SDS011;56625;54.322;18.582;2023-05-24T02:34:32;10.80;;;6.80;;
69434;SDS011;56625;54.322;18.582;2023-05-24T02:37:00;15.20;;;6.30;;
69434;SDS011;56625;54.322;18.582;2023-05-24T02:39:28;11.60;;;6.40;;
69434;SDS011;56625;54.322;18.582;2023-05-24T02:41:57;11.60;;;6.40;;
69434;SDS011;56625;54.322;18.582;2023-05-24T02:44:25;12.10;;;6.20;;
69434;SDS011;56625;54.322;18.582;2023-05-24T02:46:53;11.40;;;5.90;;
69434;SDS011;56625;54.322;18.582;2023-05-24T02:49:21;10.60;;;5.80;;
69434;SDS011;56625;54.322;18.582;2023-05-24T02:51:49;11.80;;;5.50;;
69434;SDS011;56625;54.322;18.582;2023-05-24T02:54:18;11.60;;;5.70;;
69434;SDS011;56625;54.322;18.582;2023-05-24T02:56:46;9.80;;;5.60;;
69434;SDS011;56625;54.322;18.582;2023-05-24T02:59:14;12.10;;;5.40;;
69434;SDS011;56625;54.322;18.582;2023-05-24T03:01:42;10.80;;;5.10;;
69434;SDS011;56625;54.322;18.582;2023-05-24T03:04:10;10.60;;;5.20;;
69434;SDS011;56625;54.322;18.582;2023-05-24T03:06:39;10.50;;;5.30;;
69434;SDS011;56625;54.322;18.582;2023-05-24T03:09:07;11.70;;;5.50;;
69434;SDS011;56625;54.322;18.582;2023-05-24T03:11:35;10.20;;;5.10;;
69434;SDS011;56625;54.322;18.582;2023-05-24T03:14:03;10.10;;;5.30;;
69434;SDS011;56625;54.322;18.582;2023-05-24T03:16:32;9.70;;;5.20;;
69434;SDS011;56625;54.322;18.582;2023-05-24T03:19:01;10.50;;;5.30;;
69434;SDS011;56625;54.322;18.582;2023-05-24T03:21:29;12.40;;;5.10;;
69434;SDS011;56625;54.322;18.582;2023-05-24T03:23:58;10.20;;;5.10;;
69434;SDS011;56625;54.322;18.582;2023-05-24T03:26:26;11.30;;;5.50;;
69434;SDS011;56625;54.322;18.582;2023-05-24T03:28:54;11.30;;;5.50;;
69434;SDS011;56625;54.322;18.582;2023-05-24T03:31:23;11.90;;;4.70;;
69434;SDS011;56625;54.322;18.582;2023-05-24T03:33:53;9.30;;;4.60;;
69434;SDS011;56625;54.322;18.582;2023-05-24T03:36:21;11.20;;;4.50;;
69434;SDS011;56625;54.322;18.582;2023-05-24T03:38:50;10.80;;;4.90;;
69434;SDS011;56625;54.322;18.582;2023-05-24T03:41:18;9.20;;;5.20;;
69434;SDS011;56625;54.322;18.582;2023-05-24T03:43:45;9.00;;;4.80;;
69434;SDS011;56625;54.322;18.582;2023-05-24T03:46:13;11.20;;;5.10;;
69434;SDS011;56625;54.322;18.582;2023-05-24T03:48:41;10.10;;;5.40;;
69434;SDS011;56625;54.322;18.582;2023-05-24T03:51:09;10.10;;;5.00;;
69434;SDS011;56625;54.322;18.582;2023-05-24T03:53:37;10.40;;;4.80;;
69434;SDS011;56625;54.322;18.582;2023-05-24T03:56:05;9.20;;;4.50;;
69434;SDS011;56625;54.322;18.582;2023-05-24T03:58:33;9.20;;;4.70;;
69434;SDS011;56625;54.322;18.582;2023-05-24T04:01:01;8.40;;;4.30;;
69434;SDS011;56625;54.322;18.582;2023-05-24T04:03:29;10.20;;;4.60;;
69434;SDS011;56625;54.322;18.582;2023-05-24T04:05:57;11.80;;;4.70;;
69434;SDS011;56625;54.322;18.582;2023-05-24T04:08:24;9.60;;;4.50;;
69434;SDS011;56625;54.322;18.582;2023-05-24T04:10:52;8.90;;;4.40;;
69434;SDS011;56625;54.322;18.582;2023-05-24T04:13:21;9.70;;;4.60;;
69434;SDS011;56625;54.322;18.582;2023-05-24T04:15:48;9.30;;;4.90;;
69434;SDS011;56625;54.322;18.582;2023-05-24T04:18:17;9.70;;;4.30;;
69434;SDS011;56625;54.322;18.582;2023-05-24T04:20:45;10.30;;;4.90;;
69434;SDS011;56625;54.322;18.582;2023-05-24T04:23:12;8.60;;;4.60;;
69434;SDS011;56625;54.322;18.582;2023-05-24T04:25:41;10.50;;;4.10;;
69434;SDS011;56625;54.322;18.582;2023-05-24T04:28:09;8.70;;;4.20;;
69434;SDS011;56625;54.322;18.582;2023-05-24T04:30:37;9.20;;;4.20;;
69434;SDS011;56625;54.322;18.582;2023-05-24T04:33:05;11.60;;;4.30;;
69434;SDS011;56625;54.322;18.582;2023-05-24T04:35:32;8.50;;;4.10;;
69434;SDS011;56625;54.322;18.582;2023-05-24T04:38:02;8.60;;;3.90;;
69434;SDS011;56625;54.322;18.582;2023-05-24T04:40:30;11.30;;;4.30;;
69434;SDS011;56625;54.322;18.582;2023-05-24T04:42:58;8.40;;;4.00;;
69434;SDS011;56625;54.322;18.582;2023-05-24T04:45:26;9.00;;;3.90;;
69434;SDS011;56625;54.322;18.582;2023-05-24T04:47:54;9.60;;;4.20;;
69434;SDS011;56625;54.322;18.582;2023-05-24T04:50:22;8.20;;;4.30;;
69434;SDS011;56625;54.322;18.582;2023-05-24T04:52:50;7.60;;;3.90;;
69434;SDS011;56625;54.322;18.582;2023-05-24T04:55:18;11.10;;;4.20;;
69434;SDS011;56625;54.322;18.582;2023-05-24T04:57:46;9.70;;;4.10;;
69434;SDS011;56625;54.322;18.582;2023-05-24T05:00:15;10.10;;;4.40;;
69434;SDS011;56625;54.322;18.582;2023-05-24T05:02:43;8.70;;;4.10;;
69434;SDS011;56625;54.322;18.582;2023-05-24T05:05:11;9.90;;;4.10;;
69434;SDS011;56625;54.322;18.582;2023-05-24T05:07:39;10.90;;;4.40;;
69434;SDS011;56625;54.322;18.582;2023-05-24T05:10:07;10.00;;;4.30;;
69434;SDS011;56625;54.322;18.582;2023-05-24T05:12:35;9.80;;;4.40;;
69434;SDS011;56625;54.322;18.582;2023-05-24T05:15:04;8.90;;;4.10;;
69434;SDS011;56625;54.322;18.582;2023-05-24T05:17:34;10.90;;;5.10;;
69434;SDS011;56625;54.322;18.582;2023-05-24T05:20:03;10.80;;;4.50;;
69434;SDS011;56625;54.322;18.582;2023-05-24T05:22:32;9.50;;;4.50;;
69434;SDS011;56625;54.322;18.582;2023-05-24T05:25:00;9.70;;;4.40;;
69434;SDS011;56625;54.322;18.582;2023-05-24T05:27:28;9.30;;;4.30;;
69434;SDS011;56625;54.322;18.582;2023-05-24T05:29:57;10.00;;;4.20;;
69434;SDS011;56625;54.322;18.582;2023-05-24T05:32:24;9.90;;;5.20;;
69434;SDS011;56625;54.322;18.582;2023-05-24T05:34:52;9.70;;;4.40;;
69434;SDS011;56625;54.322;18.582;2023-05-24T05:37:20;9.20;;;4.70;;
69434;SDS011;56625;54.322;18.582;2023-05-24T05:39:48;10.20;;;4.70;;
69434;SDS011;56625;54.322;18.582;2023-05-24T05:42:16;11.00;;;4.70;;
69434;SDS011;56625;54.322;18.582;2023-05-24T05:44:44;8.70;;;4.50;;
69434;SDS011;56625;54.322;18.582;2023-05-24T05:47:12;12.60;;;4.90;;
69434;SDS011;56625;54.322;18.582;2023-05-24T05:49:40;11.00;;;4.20;;
69434;SDS011;56625;54.322;18.582;2023-05-24T05:52:08;10.50;;;4.80;;
69434;SDS011;56625;54.322;18.582;2023-05-24T05:54:36;14.10;;;4.90;;
69434;SDS011;56625;54.322;18.582;2023-05-24T05:57:04;10.20;;;4.60;;
69434;SDS011;56625;54.322;18.582;2023-05-24T05:59:32;8.90;;;4.70;;
69434;SDS011;56625;54.322;18.582;2023-05-24T06:02:03;12.10;;;5.30;;
69434;SDS011;56625;54.322;18.582;2023-05-24T06:04:32;15.90;;;5.80;;
69434;SDS011;56625;54.322;18.582;2023-05-24T06:07:01;14.10;;;5.80;;
69434;SDS011;56625;54.322;18.582;2023-05-24T06:09:29;12.00;;;5.60;;
69434;SDS011;56625;54.322;18.582;2023-05-24T06:11:56;14.80;;;5.40;;
69434;SDS011;56625;54.322;18.582;2023-05-24T06:14:24;22.80;;;6.60;;
69434;SDS011;56625;54.322;18.582;2023-05-24T06:16:52;13.60;;;5.30;;
69434;SDS011;56625;54.322;18.582;2023-05-24T06:19:24;12.40;;;5.50;;
69434;SDS011;56625;54.322;18.582;2023-05-24T06:21:53;11.10;;;5.40;;
69434;SDS011;56625;54.322;18.582;2023-05-24T06:24:21;13.00;;;5.20;;
69434;SDS011;56625;54.322;18.582;2023-05-24T06:26:51;10.90;;;5.50;;
69434;SDS011;56625;54.322;18.582;2023-05-24T06:29:19;10.90;;;5.20;;
69434;SDS011;56625;54.322;18.582;2023-05-24T06:31:48;11.50;;;5.10;;
69434;SDS011;56625;54.322;18.582;2023-05-24T06:34:18;15.00;;;5.60;;
69434;SDS011;56625;54.322;18.582;2023-05-24T06:36:48;11.50;;;4.90;;
69434;SDS011;56625;54.322;18.582;2023-05-24T06:39:18;11.30;;;5.30;;
69434;SDS011;56625;54.322;18.582;2023-05-24T06:41:46;9.40;;;5.10;;
69434;SDS011;56625;54.322;18.582;2023-05-24T06:44:14;9.10;;;5.10;;
69434;SDS011;56625;54.322;18.582;2023-05-24T06:46:43;13.00;;;4.70;;
69434;SDS011;56625;54.322;18.582;2023-05-24T06:49:11;11.60;;;4.40;;
69434;SDS011;56625;54.322;18.582;2023-05-24T06:51:39;11.30;;;5.10;;
69434;SDS011;56625;54.322;18.582;2023-05-24T06:54:07;8.70;;;4.50;;
69434;SDS011;56625;54.322;18.582;2023-05-24T06:56:35;10.10;;;4.20;;
69434;SDS011;56625;54.322;18.582;2023-05-24T06:59:02;10.00;;;4.30;;
69434;SDS011;56625;54.322;18.582;2023-05-24T07:01:30;10.00;;;4.60;;
69434;SDS011;56625;54.322;18.582;2023-05-24T07:03:59;10.90;;;4.70;;
69434;SDS011;56625;54.322;18.582;2023-05-24T07:06:27;11.20;;;4.80;;
69434;SDS011;56625;54.322;18.582;2023-05-24T07:08:55;10.90;;;4.30;;
69434;SDS011;56625;54.322;18.582;2023-05-24T07:11:23;10.20;;;4.40;;
69434;SDS011;56625;54.322;18.582;2023-05-24T07:13:52;11.20;;;4.60;;
69434;SDS011;56625;54.322;18.582;2023-05-24T07:16:20;37.90;;;6.80;;
69434;SDS011;56625;54.322;18.582;2023-05-24T07:18:48;11.50;;;4.30;;
69434;SDS011;56625;54.322;18.582;2023-05-24T07:21:16;9.70;;;4.00;;
69434;SDS011;56625;54.322;18.582;2023-05-24T07:23:44;10.20;;;4.40;;
69434;SDS011;56625;54.322;18.582;2023-05-24T07:26:12;8.60;;;4.30;;
69434;SDS011;56625;54.322;18.582;2023-05-24T07:28:40;9.50;;;4.00;;
69434;SDS011;56625;54.322;18.582;2023-05-24T07:31:09;12.40;;;4.70;;
69434;SDS011;56625;54.322;18.582;2023-05-24T07:33:37;9.60;;;4.30;;
69434;SDS011;56625;54.322;18.582;2023-05-24T07:36:06;10.30;;;4.20;;
69434;SDS011;56625;54.322;18.582;2023-05-24T07:38:35;7.40;;;3.80;;
69434;SDS011;56625;54.322;18.582;2023-05-24T07:41:05;7.80;;;4.00;;
69434;SDS011;56625;54.322;18.582;2023-05-24T07:43:34;8.00;;;3.90;;
69434;SDS011;56625;54.322;18.582;2023-05-24T07:46:04;8.90;;;3.60;;
69434;SDS011;56625;54.322;18.582;2023-05-24T07:48:32;7.90;;;3.70;;
69434;SDS011;56625;54.322;18.582;2023-05-24T07:51:00;10.00;;;3.50;;
69434;SDS011;56625;54.322;18.582;2023-05-24T07:53:27;8.20;;;4.50;;
69434;SDS011;56625;54.322;18.582;2023-05-24T07:55:56;11.50;;;3.80;;
69434;SDS011;56625;54.322;18.582;2023-05-24T07:58:24;7.30;;;3.90;;
69434;SDS011;56625;54.322;18.582;2023-05-24T08:00:52;8.40;;;3.60;;
69434;SDS011;56625;54.322;18.582;2023-05-24T08:03:20;8.00;;;3.80;;
69434;SDS011;56625;54.322;18.582;2023-05-24T08:05:48;9.10;;;4.10;;
69434;SDS011;56625;54.322;18.582;2023-05-24T08:08:16;9.80;;;4.40;;
69434;SDS011;56625;54.322;18.582;2023-05-24T08:10:45;9.00;;;4.00;;
69434;SDS011;56625;54.322;18.582;2023-05-24T08:13:12;9.50;;;4.00;;
69434;SDS011;56625;54.322;18.582;2023-05-24T08:15:40;8.20;;;3.60;;
69434;SDS011;56625;54.322;18.582;2023-05-24T08:18:09;8.40;;;3.90;;
69434;SDS011;56625;54.322;18.582;2023-05-24T08:20:37;8.90;;;4.10;;
69434;SDS011;56625;54.322;18.582;2023-05-24T08:23:05;11.70;;;4.30;;
69434;SDS011;56625;54.322;18.582;2023-05-24T08:25:33;9.50;;;4.00;;
69434;SDS011;56625;54.322;18.582;2023-05-24T08:28:01;8.30;;;3.90;;
69434;SDS011;56625;54.322;18.582;2023-05-24T08:30:29;9.60;;;4.40;;
69434;SDS011;56625;54.322;18.582;2023-05-24T08:32:57;9.00;;;3.90;;
69434;SDS011;56625;54.322;18.582;2023-05-24T08:35:25;9.80;;;4.20;;
69434;SDS011;56625;54.322;18.582;2023-05-24T08:37:53;10.20;;;4.10;;
69434;SDS011;56625;54.322;18.582;2023-05-24T08:40:21;8.10;;;4.10;;
69434;SDS011;56625;54.322;18.582;2023-05-24T08:42:51;8.10;;;4.00;;
69434;SDS011;56625;54.322;18.582;2023-05-24T08:45:21;8.40;;;4.20;;
69434;SDS011;56625;54.322;18.582;2023-05-24T08:47:49;8.00;;;4.10;;
69434;SDS011;56625;54.322;18.582;2023-05-24T08:50:19;13.30;;;4.10;;
69434;SDS011;56625;54.322;18.582;2023-05-24T08:52:47;10.10;;;3.90;;
69434;SDS011;56625;54.322;18.582;2023-05-24T08:55:16;7.40;;;3.60;;
69434;SDS011;56625;54.322;18.582;2023-05-24T08:57:45;11.10;;;3.90;;
69434;SDS011;56625;54.322;18.582;2023-05-24T09:00:17;11.70;;;4.00;;
69434;SDS011;56625;54.322;18.582;2023-05-24T09:02:48;9.30;;;4.20;;
69434;SDS011;56625;54.322;18.582;2023-05-24T09:05:17;11.20;;;4.30;;
69434;SDS011;56625;54.322;18.582;2023-05-24T09:07:50;9.40;;;4.10;;
69434;SDS011;56625;54.322;18.582;2023-05-24T09:10:19;8.70;;;4.50;;
69434;SDS011;56625;54.322;18.582;2023-05-24T09:12:54;8.70;;;4.30;;
69434;SDS011;56625;54.322;18.582;2023-05-24T09:15:24;10.70;;;4.50;;
69434;SDS011;56625;54.322;18.582;2023-05-24T09:17:52;10.20;;;4.40;;
69434;SDS011;56625;54.322;18.582;2023-05-24T09:20:20;10.20;;;4.70;;
69434;SDS011;56625;54.322;18.582;2023-05-24T09:22:51;10.00;;;4.20;;
69434;SDS011;56625;54.322;18.582;2023-05-24T09:25:20;9.40;;;4.40;;
69434;SDS011;56625;54.322;18.582;2023-05-24T09:27:52;8.10;;;4.00;;
69434;SDS011;56625;54.322;18.582;2023-05-24T09:30:20;8.10;;;4.00;;
69434;SDS011;56625;54.322;18.582;2023-05-24T09:32:59;8.50;;;3.70;;
69434;SDS011;56625;54.322;18.582;2023-05-24T09:35:28;9.80;;;3.90;;
69434;SDS011;56625;54.322;18.582;2023-05-24T09:37:57;9.30;;;3.90;;
69434;SDS011;56625;54.322;18.582;2023-05-24T09:40:28;9.80;;;3.90;;
69434;SDS011;56625;54.322;18.582;2023-05-24T09:43:10;9.60;;;3.80;;
69434;SDS011;56625;54.322;18.582;2023-05-24T09:45:43;8.40;;;3.70;;
69434;SDS011;56625;54.322;18.582;2023-05-24T09:48:16;14.10;;;4.00;;
69434;SDS011;56625;54.322;18.582;2023-05-24T09:50:44;8.20;;;4.20;;
69434;SDS011;56625;54.322;18.582;2023-05-24T09:53:26;8.60;;;4.10;;
69434;SDS011;56625;54.322;18.582;2023-05-24T09:55:55;9.90;;;3.90;;
69434;SDS011;56625;54.322;18.582;2023-05-24T09:58:28;8.30;;;3.90;;
69434;SDS011;56625;54.322;18.582;2023-05-24T10:01:07;9.60;;;4.20;;
69434;SDS011;56625;54.322;18.582;2023-05-24T10:03:55;8.70;;;4.30;;
69434;SDS011;56625;54.322;18.582;2023-05-24T10:06:32;8.50;;;4.00;;
69434;SDS011;56625;54.322;18.582;2023-05-24T10:09:04;10.30;;;4.40;;
69434;SDS011;56625;54.322;18.582;2023-05-24T10:11:34;8.20;;;4.30;;
69434;SDS011;56625;54.322;18.582;2023-05-24T10:14:08;10.70;;;3.90;;
69434;SDS011;56625;54.322;18.582;2023-05-24T10:16:36;7.80;;;4.60;;
69434;SDS011;56625;54.322;18.582;2023-05-24T10:19:05;8.10;;;4.30;;
69434;SDS011;56625;54.322;18.582;2023-05-24T10:21:37;9.20;;;4.10;;
69434;SDS011;56625;54.322;18.582;2023-05-24T10:24:08;8.10;;;4.00;;
69434;SDS011;56625;54.322;18.582;2023-05-24T10:26:39;9.70;;;4.00;;
69434;SDS011;56625;54.322;18.582;2023-05-24T10:29:26;9.40;;;4.30;;
69434;SDS011;56625;54.322;18.582;2023-05-24T10:32:03;9.60;;;4.00;;
69434;SDS011;56625;54.322;18.582;2023-05-24T10:34:32;8.90;;;4.30;;
69434;SDS011;56625;54.322;18.582;2023-05-24T10:37:01;7.40;;;4.00;;
69434;SDS011;56625;54.322;18.582;2023-05-24T10:39:31;10.50;;;4.40;;
69434;SDS011;56625;54.322;18.582;2023-05-24T10:42:02;8.80;;;3.90;;
69434;SDS011;56625;54.322;18.582;2023-05-24T10:44:35;8.60;;;4.30;;
69434;SDS011;56625;54.322;18.582;2023-05-24T10:47:11;11.70;;;4.40;;
69434;SDS011;56625;54.322;18.582;2023-05-24T10:49:51;12.70;;;4.50;;
69434;SDS011;56625;54.322;18.582;2023-05-24T10:52:34;9.60;;;4.40;;
69434;SDS011;56625;54.322;18.582;2023-05-24T10:55:05;9.00;;;4.40;;
69434;SDS011;56625;54.322;18.582;2023-05-24T10:57:38;13.50;;;4.30;;
69434;SDS011;56625;54.322;18.582;2023-05-24T11:03:00;9.30;;;4.00;;
69434;SDS011;56625;54.322;18.582;2023-05-24T11:11:09;8.20;;;4.60;;
69434;SDS011;56625;54.322;18.582;2023-05-24T11:13:55;11.50;;;4.40;;
69434;SDS011;56625;54.322;18.582;2023-05-24T11:16:33;10.30;;;4.90;;
69434;SDS011;56625;54.322;18.582;2023-05-24T11:19:18;10.20;;;4.40;;
69434;SDS011;56625;54.322;18.582;2023-05-24T11:21:51;10.10;;;4.40;;
69434;SDS011;56625;54.322;18.582;2023-05-24T11:24:20;11.50;;;4.70;;
69434;SDS011;56625;54.322;18.582;2023-05-24T11:26:49;10.10;;;4.80;;
69434;SDS011;56625;54.322;18.582;2023-05-24T11:29:18;9.70;;;4.50;;
69434;SDS011;56625;54.322;18.582;2023-05-24T11:31:58;8.90;;;4.70;;
69434;SDS011;56625;54.322;18.582;2023-05-24T11:34:32;9.40;;;4.70;;
69434;SDS011;56625;54.322;18.582;2023-05-24T11:37:02;7.60;;;4.30;;
69434;SDS011;56625;54.322;18.582;2023-05-24T11:39:34;8.80;;;4.40;;
69434;SDS011;56625;54.322;18.582;2023-05-24T11:42:04;7.60;;;4.70;;
69434;SDS011;56625;54.322;18.582;2023-05-24T11:44:34;8.60;;;4.50;;
69434;SDS011;56625;54.322;18.582;2023-05-24T11:47:07;7.70;;;4.90;;
69434;SDS011;56625;54.322;18.582;2023-05-24T11:49:35;11.40;;;5.10;;
69434;SDS011;56625;54.322;18.582;2023-05-24T11:52:04;12.30;;;4.70;;
69434;SDS011;56625;54.322;18.582;2023-05-24T11:54:33;10.10;;;5.20;;
69434;SDS011;56625;54.322;18.582;2023-05-24T11:57:01;9.40;;;4.70;;
69434;SDS011;56625;54.322;18.582;2023-05-24T11:59:30;8.90;;;4.50;;
69434;SDS011;56625;54.322;18.582;2023-05-24T12:02:00;8.80;;;4.70;;
69434;SDS011;56625;54.322;18.582;2023-05-24T12:04:33;9.10;;;4.60;;
69434;SDS011;56625;54.322;18.582;2023-05-24T12:07:02;8.80;;;4.70;;
69434;SDS011;56625;54.322;18.582;2023-05-24T12:09:31;9.50;;;5.20;;
69434;SDS011;56625;54.322;18.582;2023-05-24T12:11:59;7.80;;;4.70;;
69434;SDS011;56625;54.322;18.582;2023-05-24T12:14:29;9.60;;;4.70;;
69434;SDS011;56625;54.322;18.582;2023-05-24T12:17:01;9.10;;;4.60;;
69434;SDS011;56625;54.322;18.582;2023-05-24T12:19:30;8.70;;;4.50;;
69434;SDS011;56625;54.322;18.582;2023-05-24T12:22:05;8.90;;;4.60;;
69434;SDS011;56625;54.322;18.582;2023-05-24T12:24:36;9.00;;;5.00;;
69434;SDS011;56625;54.322;18.582;2023-05-24T12:27:05;9.40;;;4.50;;
69434;SDS011;56625;54.322;18.582;2023-05-24T12:29:38;9.90;;;4.70;;
69434;SDS011;56625;54.322;18.582;2023-05-24T12:32:09;9.10;;;4.90;;
69434;SDS011;56625;54.322;18.582;2023-05-24T12:34:43;9.80;;;5.20;;
69434;SDS011;56625;54.322;18.582;2023-05-24T12:37:13;9.30;;;4.90;;
69434;SDS011;56625;54.322;18.582;2023-05-24T12:39:42;12.50;;;5.50;;
69434;SDS011;56625;54.322;18.582;2023-05-24T12:42:11;11.80;;;4.90;;
69434;SDS011;56625;54.322;18.582;2023-05-24T12:44:40;13.50;;;5.20;;
69434;SDS011;56625;54.322;18.582;2023-05-24T12:47:09;14.40;;;5.30;;
69434;SDS011;56625;54.322;18.582;2023-05-24T12:49:37;9.70;;;5.30;;
69434;SDS011;56625;54.322;18.582;2023-05-24T12:52:05;9.80;;;5.00;;
69434;SDS011;56625;54.322;18.582;2023-05-24T12:54:34;9.20;;;4.70;;
69434;SDS011;56625;54.322;18.582;2023-05-24T12:57:02;9.10;;;5.00;;
69434;SDS011;56625;54.322;18.582;2023-05-24T12:59:31;12.20;;;5.30;;
69434;SDS011;56625;54.322;18.582;2023-05-24T13:02:00;10.20;;;5.20;;
69434;SDS011;56625;54.322;18.582;2023-05-24T13:04:29;11.30;;;5.40;;
69434;SDS011;56625;54.322;18.582;2023-05-24T13:07:01;10.70;;;4.90;;
69434;SDS011;56625;54.322;18.582;2023-05-24T13:09:30;12.00;;;5.20;;
69434;SDS011;56625;54.322;18.582;2023-05-24T13:11:58;10.60;;;5.10;;
69434;SDS011;56625;54.322;18.582;2023-05-24T13:14:26;10.00;;;4.90;;
69434;SDS011;56625;54.322;18.582;2023-05-24T13:16:54;10.00;;;5.00;;
69434;SDS011;56625;54.322;18.582;2023-05-24T13:19:22;8.70;;;5.10;;
69434;SDS011;56625;54.322;18.582;2023-05-24T13:21:50;10.60;;;5.10;;
69434;SDS011;56625;54.322;18.582;2023-05-24T13:24:19;11.10;;;4.90;;
69434;SDS011;56625;54.322;18.582;2023-05-24T13:26:48;10.60;;;5.30;;
69434;SDS011;56625;54.322;18.582;2023-05-24T13:29:21;10.10;;;5.20;;
69434;SDS011;56625;54.322;18.582;2023-05-24T13:32:09;9.30;;;5.30;;
69434;SDS011;56625;54.322;18.582;2023-05-24T13:34:37;10.20;;;4.90;;
69434;SDS011;56625;54.322;18.582;2023-05-24T13:37:06;9.70;;;5.00;;
69434;SDS011;56625;54.322;18.582;2023-05-24T13:39:36;9.80;;;4.90;;
69434;SDS011;56625;54.322;18.582;2023-05-24T13:42:05;13.30;;;4.90;;
69434;SDS011;56625;54.322;18.582;2023-05-24T13:44:34;9.70;;;4.80;;
69434;SDS011;56625;54.322;18.582;2023-05-24T13:47:02;11.60;;;4.70;;
69434;SDS011;56625;54.322;18.582;2023-05-24T13:49:30;10.20;;;5.20;;
69434;SDS011;56625;54.322;18.582;2023-05-24T13:51:58;7.90;;;4.60;;
69434;SDS011;56625;54.322;18.582;2023-05-24T13:54:27;9.30;;;5.10;;
69434;SDS011;56625;54.322;18.582;2023-05-24T13:56:55;8.60;;;4.60;;
69434;SDS011;56625;54.322;18.582;2023-05-24T13:59:26;8.60;;;4.80;;
69434;SDS011;56625;54.322;18.582;2023-05-24T14:01:55;8.60;;;4.50;;
69434;SDS011;56625;54.322;18.582;2023-05-24T14:04:24;8.80;;;4.60;;
69434;SDS011;56625;54.322;18.582;2023-05-24T14:06:52;8.70;;;4.40;;
69434;SDS011;56625;54.322;18.582;2023-05-24T14:09:20;9.40;;;5.00;;
69434;SDS011;56625;54.322;18.582;2023-05-24T14:11:48;13.50;;;4.90;;
69434;SDS011;56625;54.322;18.582;2023-05-24T14:14:17;11.30;;;5.00;;
69434;SDS011;56625;54.322;18.582;2023-05-24T14:16:48;9.70;;;4.30;;
69434;SDS011;56625;54.322;18.582;2023-05-24T14:19:19;8.60;;;4.70;;
69434;SDS011;56625;54.322;18.582;2023-05-24T14:21:47;10.10;;;4.70;;
69434;SDS011;56625;54.322;18.582;2023-05-24T14:24:16;10.60;;;4.80;;
69434;SDS011;56625;54.322;18.582;2023-05-24T14:26:44;9.30;;;5.00;;
69434;SDS011;56625;54.322;18.582;2023-05-24T14:29:14;10.00;;;5.10;;
69434;SDS011;56625;54.322;18.582;2023-05-24T14:31:42;11.80;;;5.60;;
69434;SDS011;56625;54.322;18.582;2023-05-24T14:34:11;9.00;;;5.40;;
69434;SDS011;56625;54.322;18.582;2023-05-24T14:36:39;10.00;;;4.80;;
69434;SDS011;56625;54.322;18.582;2023-05-24T14:39:08;8.30;;;4.80;;
69434;SDS011;56625;54.322;18.582;2023-05-24T14:41:37;10.90;;;5.50;;
69434;SDS011;56625;54.322;18.582;2023-05-24T14:44:04;9.20;;;4.50;;
69434;SDS011;56625;54.322;18.582;2023-05-24T14:46:33;8.00;;;4.20;;
69434;SDS011;56625;54.322;18.582;2023-05-24T14:49:02;9.90;;;4.80;;
69434;SDS011;56625;54.322;18.582;2023-05-24T14:51:31;12.60;;;4.60;;
69434;SDS011;56625;54.322;18.582;2023-05-24T14:53:59;10.30;;;4.80;;
69434;SDS011;56625;54.322;18.582;2023-05-24T14:56:27;10.10;;;5.10;;
69434;SDS011;56625;54.322;18.582;2023-05-24T14:58:56;10.80;;;5.20;;
69434;SDS011;56625;54.322;18.582;2023-05-24T15:01:25;10.80;;;5.10;;
69434;SDS011;56625;54.322;18.582;2023-05-24T15:03:53;9.70;;;4.70;;